Αρχική σελίδα
METAR-TAF:

METAR-TAF

Αεροδρόμια :

Τεχεράνη, Ιράν

γεωγραφικό πλάτος: 35-41N, γεωγραφικό μήκος: 051-21E, υψόμετρο: 1204 μ

Παρών καιρός

Η αναφορά έγινε 41 λεπτά πριν, στις 03:30 UTC
Άνεμος 4 kt από Δ/BΔ
Θερμοκρασία 5°C
Υγρασία 60%
Πίεση 1019 hPa
Ορατότητα 10 χλμ και άνω
Δεν υπάρχουν νέφη με βάση κάτω από τα 1500 μ. και δεν υπάρχουν νέφη σωρειτομελανίτες.

METAR: OIII 110330Z 30004KT CAVOK 05/M02 Q1019 A3009

Χρόνος: 07:41 (04:11 UTC)

Πρόγνωση Καιρού

Η αναφορά έγινε 5 ώρες και 11 λεπτά πριν, στις 23:00 UTC
Η πρόγνωση ισχύει από τις 11 στις 00 UTC έως τις 12 στις 06 UTC
Άνεμος 8 kt από Β
Ορατότητα: 7000 μ
Πιθανότητα 40%
από 11 στις 01 UTC έως τις 11 στις 08 UTC
Ορατότητα: 4000 μ
καταχνιά
Πιθανότητα 40%
από 12 στις 01 UTC έως τις 12 στις 08 UTC
Ορατότητα: 4000 μ
καταχνιά

TAF: OIII 102300Z 1100/1206 36004MPS 7000 NSC PROB40 1101/1108 4000 HZ PROB40 1201/1208 4000 HZ

Μετεωρολογικές αναφορές και προγνώσεις για περισσότερα από 4000 αεροδρόμια (δελτία METAR και TAF).

Οι διαθέσιμοι σταθμοί απεικονίζονται στο χάρτη με κίτρινες και κόκκινες κουκκίδες.

Μετακινήστε το ποντίκι πάνω από τις κουκκίδες για να δείτε το όνομα του σταθμού.

Στη συνέχεια, κάντε κλικ για να δείτε τις μετεωρολογικές αναφορές και τις προγνώσεις καιρού.

Για να αλλάξετε το χάρτη: κάντε κλικ στα πράσινα κουμπιά με τον μαύρο σταυρό για να ζουμάρετε, στο πράσινο κουμπί με την παύλα για να αφαιρέσετε το ζουμ ή στα πράσινα βέλη για να αντιπαραβάλλετε χάρτες.


METAR-TAF: